createdAt,value
2018-10-01T00:02:12.519Z,1.33
2018-10-01T00:04:42.661Z,1.43
2018-10-01T00:07:14.775Z,1.43
2018-10-01T00:09:43.358Z,1.53
2018-10-01T00:12:12.912Z,1.73
2018-10-01T00:14:41.489Z,1.40
2018-10-01T00:17:10.855Z,1.40
2018-10-01T00:19:45.146Z,1.30
2018-10-01T00:22:18.967Z,1.43
2018-10-01T00:24:47.577Z,1.50
2018-10-01T00:27:16.427Z,1.80
2018-10-01T00:29:49.718Z,1.30
2018-10-01T00:32:18.307Z,1.23
2018-10-01T00:34:48.686Z,1.60
2018-10-01T00:37:19.859Z,1.37
2018-10-01T00:39:49.676Z,1.23
2018-10-01T00:42:18.273Z,2.03
2018-10-01T00:44:46.840Z,1.83
2018-10-01T00:47:15.440Z,1.67
2018-10-01T00:49:44.103Z,1.63
2018-10-01T00:52:12.659Z,1.17
2018-10-01T00:54:41.232Z,1.60
2018-10-01T00:57:09.863Z,1.13
2018-10-01T00:59:38.737Z,1.70
2018-10-01T01:02:07.309Z,1.67
2018-10-01T01:04:35.936Z,1.47
2018-10-01T01:07:04.516Z,1.10
2018-10-01T01:09:33.059Z,1.40
2018-10-01T01:12:01.616Z,1.40
2018-10-01T01:14:30.347Z,1.23
2018-10-01T01:16:58.908Z,1.80
2018-10-01T01:19:27.475Z,1.53
2018-10-01T01:21:56.049Z,1.70
2018-10-01T01:24:24.635Z,1.23
2018-10-01T01:26:53.371Z,0.77
2018-10-01T01:29:22.487Z,0.80
2018-10-01T01:31:51.083Z,1.07
2018-10-01T01:34:19.644Z,1.30
2018-10-01T01:36:48.196Z,1.50
2018-10-01T01:39:16.785Z,1.03
2018-10-01T01:41:45.348Z,2.00
2018-10-01T01:44:13.929Z,1.40
2018-10-01T01:46:42.491Z,1.37
2018-10-01T01:49:11.078Z,1.90
2018-10-01T01:51:39.715Z,1.37
2018-10-01T01:54:08.279Z,0.80
2018-10-01T01:56:36.859Z,1.00
2018-10-01T01:59:05.439Z,1.10
2018-10-01T02:01:34.005Z,1.27
2018-10-01T02:04:02.635Z,1.27
2018-10-01T02:06:31.213Z,1.60
2018-10-01T02:08:59.795Z,0.73
2018-10-01T02:11:28.343Z,0.93
2018-10-01T02:13:56.888Z,1.20
2018-10-01T02:16:25.472Z,1.30
2018-10-01T02:18:54.031Z,1.43
2018-10-01T02:21:22.667Z,1.60
2018-10-01T02:23:51.215Z,1.80
2018-10-01T02:26:19.776Z,1.20
2018-10-01T02:28:48.375Z,1.47
2018-10-01T02:31:16.936Z,2.10
2018-10-01T02:33:45.502Z,1.93
2018-10-01T02:36:14.069Z,1.90
2018-10-01T02:38:42.635Z,1.50
2018-10-01T02:41:11.240Z,1.53
2018-10-01T02:43:39.812Z,1.07
2018-10-01T02:46:08.407Z,1.20
2018-10-01T02:48:36.959Z,1.10
2018-10-01T02:51:06.051Z,0.90
2018-10-01T02:53:39.828Z,1.10
2018-10-01T02:56:08.464Z,1.07
2018-10-01T02:58:37.019Z,1.37
2018-10-01T03:01:05.581Z,1.20
2018-10-01T03:03:34.162Z,1.27
2018-10-01T03:06:02.737Z,1.37
2018-10-01T03:08:31.324Z,1.40
2018-10-01T03:10:59.920Z,0.83
2018-10-01T03:13:28.471Z,1.40
2018-10-01T03:15:57.051Z,1.00
2018-10-01T03:18:25.620Z,1.00
2018-10-01T03:20:54.184Z,0.77
2018-10-01T03:23:22.759Z,0.87
2018-10-01T03:25:51.337Z,1.80
2018-10-01T03:28:20.555Z,1.27
2018-10-01T03:30:49.117Z,0.87
2018-10-01T03:33:17.686Z,1.47
2018-10-01T03:35:46.478Z,1.10
2018-10-01T03:38:15.112Z,0.90
2018-10-01T03:40:43.716Z,0.90
2018-10-01T03:43:12.663Z,0.90
2018-10-01T03:45:41.244Z,1.37
2018-10-01T03:48:09.824Z,1.40
2018-10-01T03:50:38.495Z,1.20
2018-10-01T03:53:07.111Z,1.10
2018-10-01T03:55:38.336Z,1.60
2018-10-01T03:58:06.897Z,1.67
2018-10-01T04:00:35.635Z,0.63
2018-10-01T04:03:04.299Z,0.80
2018-10-01T04:05:32.879Z,0.70
2018-10-01T04:08:01.583Z,1.23
2018-10-01T04:10:30.160Z,1.03
2018-10-01T04:12:58.736Z,0.90
2018-10-01T04:15:27.368Z,0.87
2018-10-01T04:17:56.494Z,1.13
2018-10-01T04:20:25.094Z,0.80
2018-10-01T04:22:53.745Z,1.13
2018-10-01T04:25:22.552Z,0.70
2018-10-01T04:27:51.131Z,1.07
2018-10-01T04:30:19.724Z,1.10
2018-10-01T04:32:48.339Z,1.40
2018-10-01T04:35:16.903Z,1.47
2018-10-01T04:37:45.469Z,1.30
2018-10-01T04:40:14.041Z,1.13
2018-10-01T04:42:42.624Z,1.10
2018-10-01T04:45:12.985Z,1.27
2018-10-01T04:47:41.551Z,1.30
2018-10-01T04:50:10.108Z,1.53
2018-10-01T04:52:38.667Z,1.40
2018-10-01T04:55:07.258Z,1.20
2018-10-01T04:57:35.829Z,1.10
2018-10-01T05:00:04.584Z,1.20
2018-10-01T05:02:33.774Z,1.13
2018-10-01T05:05:02.355Z,1.00
2018-10-01T05:07:31.660Z,1.10
2018-10-01T05:10:00.327Z,0.83
2018-10-01T05:12:28.910Z,0.93
2018-10-01T05:14:57.495Z,0.97
2018-10-01T05:17:26.077Z,1.00
2018-10-01T05:19:54.662Z,1.10
2018-10-01T05:22:23.256Z,1.10
2018-10-01T05:24:51.926Z,0.80
2018-10-01T05:27:20.480Z,1.47
2018-10-01T05:29:49.088Z,1.87
2018-10-01T05:32:17.678Z,1.10
2018-10-01T05:34:46.248Z,1.40
2018-10-01T05:37:14.819Z,1.33
2018-10-01T05:39:43.803Z,1.57
2018-10-01T05:42:12.404Z,1.40
2018-10-01T05:44:40.996Z,1.30
2018-10-01T05:47:09.833Z,1.07
2018-10-01T05:49:38.512Z,1.93
2018-10-01T05:52:07.118Z,1.63
2018-10-01T05:54:36.204Z,1.80
2018-10-01T05:57:06.182Z,1.43
2018-10-01T05:59:34.806Z,1.47
2018-10-01T06:02:03.724Z,1.80
2018-10-01T06:04:33.697Z,1.20
2018-10-01T06:07:02.246Z,1.23
2018-10-01T06:09:30.848Z,1.53
2018-10-01T06:11:59.529Z,1.10
2018-10-01T06:14:28.059Z,1.37
2018-10-01T06:16:56.729Z,1.30
2018-10-01T06:19:26.101Z,1.20
2018-10-01T06:21:55.372Z,1.17
2018-10-01T06:24:24.887Z,1.63
2018-10-01T06:26:53.476Z,1.20
2018-10-01T06:29:22.048Z,1.67
2018-10-01T06:31:50.600Z,1.37
2018-10-01T06:34:19.201Z,1.10
2018-10-01T06:36:47.760Z,1.93
2018-10-01T06:39:16.859Z,1.70
2018-10-01T06:41:45.494Z,1.87
2018-10-01T06:44:14.012Z,1.67
2018-10-01T06:46:44.357Z,1.80
2018-10-01T06:49:13.042Z,1.30
2018-10-01T06:51:44.209Z,1.73
2018-10-01T06:54:12.813Z,1.90
2018-10-01T06:56:42.859Z,1.60
2018-10-01T06:59:14.309Z,2.20
2018-10-01T07:01:42.974Z,1.23
2018-10-01T07:04:11.561Z,1.37
2018-10-01T07:06:40.185Z,1.60
2018-10-01T07:09:11.061Z,1.53
2018-10-01T07:11:40.191Z,1.50
2018-10-01T07:14:08.700Z,1.07
2018-10-01T07:16:37.325Z,1.23
2018-10-01T07:19:06.840Z,1.40
2018-10-01T07:21:35.559Z,2.20
2018-10-01T07:24:04.173Z,1.53
2018-10-01T07:26:32.901Z,2.10
2018-10-01T07:29:02.855Z,1.60
2018-10-01T07:31:31.416Z,1.63
2018-10-01T07:34:00.039Z,1.37
2018-10-01T07:36:28.647Z,2.03
2018-10-01T07:38:57.231Z,2.20
2018-10-01T07:41:25.796Z,2.00
2018-10-01T07:43:54.691Z,2.40
2018-10-01T07:46:23.333Z,1.83
2018-10-01T07:48:51.881Z,2.40
2018-10-01T07:51:20.459Z,1.77
2018-10-01T07:53:49.040Z,2.27
2018-10-01T07:56:17.599Z,2.50
2018-10-01T07:58:46.194Z,1.67
2018-10-01T08:01:14.756Z,2.20
2018-10-01T08:03:43.324Z,3.63
2018-10-01T08:06:11.891Z,3.00
2018-10-01T08:08:40.540Z,2.03
2018-10-01T08:11:09.130Z,1.60
2018-10-01T08:13:37.723Z,2.10
2018-10-01T08:16:06.551Z,2.20
2018-10-01T08:18:35.113Z,3.37
2018-10-01T08:21:03.717Z,2.80
2018-10-01T08:23:32.323Z,2.13
2018-10-01T08:26:00.975Z,3.00
2018-10-01T08:28:29.547Z,2.00
2018-10-01T08:30:58.176Z,2.17
2018-10-01T08:33:26.747Z,2.47
2018-10-01T08:35:55.348Z,3.30
2018-10-01T08:38:24.086Z,2.90
2018-10-01T08:40:52.729Z,2.60
2018-10-01T08:43:21.299Z,2.10
2018-10-01T08:45:49.908Z,2.50
2018-10-01T08:48:19.281Z,3.53
2018-10-01T08:51:09.135Z,3.43
2018-10-01T08:53:48.781Z,3.53
2018-10-01T08:56:17.946Z,3.20
2018-10-01T08:58:46.563Z,3.53
2018-10-01T09:01:15.213Z,3.67
2018-10-01T09:03:43.861Z,3.37
2018-10-01T09:06:12.452Z,3.00
2018-10-01T09:08:41.056Z,2.87
2018-10-01T09:11:09.792Z,3.20
2018-10-01T09:13:38.381Z,2.37
2018-10-01T09:16:06.996Z,3.37
2018-10-01T09:18:35.619Z,2.53
2018-10-01T09:21:04.291Z,3.00
2018-10-01T09:23:33.053Z,2.77
2018-10-01T09:26:01.696Z,2.77
2018-10-01T09:28:30.296Z,3.07
2018-10-01T09:30:58.927Z,2.80
2018-10-01T09:33:27.483Z,2.57
2018-10-01T09:35:56.134Z,2.10
2018-10-01T09:38:24.755Z,3.00
2018-10-01T09:40:53.521Z,2.00
2018-10-01T09:43:22.108Z,1.73
2018-10-01T09:45:50.752Z,1.80
2018-10-01T09:48:19.392Z,2.03
2018-10-01T09:50:48.043Z,2.20
2018-10-01T09:53:16.637Z,1.97
2018-10-01T09:55:45.397Z,2.27
2018-10-01T09:58:14.206Z,2.33
2018-10-01T10:00:43.305Z,2.47
2018-10-01T10:03:12.563Z,3.33
2018-10-01T10:05:41.177Z,2.60
2018-10-01T10:08:09.809Z,2.90
2018-10-01T10:10:38.497Z,2.43
2018-10-01T10:13:07.084Z,2.57
2018-10-01T10:15:35.692Z,2.57
2018-10-01T10:18:04.896Z,2.37
2018-10-01T10:20:33.555Z,1.90
2018-10-01T10:23:02.174Z,2.77
2018-10-01T10:25:31.048Z,3.03
2018-10-01T10:27:59.657Z,1.90
2018-10-01T10:30:28.236Z,2.47
2018-10-01T10:32:56.829Z,2.73
2018-10-01T10:35:25.447Z,2.47
2018-10-01T10:37:54.080Z,1.93
2018-10-01T10:40:22.736Z,2.57
2018-10-01T10:42:51.311Z,2.30
2018-10-01T10:45:19.961Z,2.20
2018-10-01T10:47:48.568Z,2.33
2018-10-01T10:50:17.254Z,2.50
2018-10-01T10:52:45.772Z,2.43
2018-10-01T10:55:14.418Z,2.20
2018-10-01T10:57:43.084Z,2.40
2018-10-01T11:00:11.877Z,2.23
2018-10-01T11:02:40.555Z,3.20
2018-10-01T11:05:09.123Z,3.20
2018-10-01T11:07:37.793Z,2.17
2018-10-01T11:10:06.563Z,2.77
2018-10-01T11:12:35.147Z,2.27
2018-10-01T11:15:03.983Z,2.30
2018-10-01T11:17:32.720Z,2.07
2018-10-01T11:20:01.530Z,2.63
2018-10-01T11:22:30.294Z,2.67
2018-10-01T11:24:58.948Z,2.43
2018-10-01T11:27:27.584Z,2.60
2018-10-01T11:29:56.148Z,2.17
2018-10-01T11:32:24.727Z,2.67
2018-10-01T11:34:53.517Z,1.97
2018-10-01T11:37:22.140Z,2.07
2018-10-01T11:39:50.751Z,2.03
2018-10-01T11:42:19.407Z,2.20
2018-10-01T11:44:47.989Z,2.17
2018-10-01T11:47:16.598Z,2.30
2018-10-01T11:49:45.299Z,2.60
2018-10-01T11:52:13.895Z,1.90
2018-10-01T11:54:42.554Z,1.70
2018-10-01T11:57:11.256Z,2.40
2018-10-01T11:59:39.768Z,2.03
2018-10-01T12:02:08.436Z,2.47
2018-10-01T12:04:37.043Z,2.10
2018-10-01T12:07:05.597Z,1.93
2018-10-01T12:09:34.211Z,1.93
2018-10-01T12:12:02.852Z,2.10
2018-10-01T12:14:31.520Z,2.40
2018-10-01T12:17:00.187Z,2.17
2018-10-01T12:19:28.792Z,2.13
2018-10-01T12:21:57.403Z,1.63
2018-10-01T12:24:26.010Z,1.43
2018-10-01T12:26:54.672Z,1.93
2018-10-01T12:29:23.249Z,2.40
2018-10-01T12:31:52.367Z,1.73
2018-10-01T12:34:21.014Z,2.07
2018-10-01T12:36:49.579Z,2.17
2018-10-01T12:39:18.350Z,1.53
2018-10-01T12:41:46.899Z,1.93
2018-10-01T12:44:15.501Z,2.33
2018-10-01T12:46:44.192Z,2.17
2018-10-01T12:49:12.785Z,2.30
2018-10-01T12:51:41.512Z,2.23
2018-10-01T12:54:09.999Z,2.00
2018-10-01T12:56:38.702Z,2.80
2018-10-01T12:59:07.272Z,1.80
2018-10-01T13:01:36.329Z,2.30
2018-10-01T13:04:04.923Z,1.90
2018-10-01T13:06:33.569Z,3.20
2018-10-01T13:09:02.212Z,2.37
2018-10-01T13:11:30.815Z,2.27
2018-10-01T13:13:59.412Z,2.57
2018-10-01T13:16:28.100Z,2.77
2018-10-01T13:18:56.664Z,3.17
2018-10-01T13:21:25.262Z,2.33
2018-10-01T13:23:53.848Z,1.90
2018-10-01T13:26:22.440Z,2.17
2018-10-01T13:28:51.116Z,2.47
2018-10-01T13:31:19.748Z,2.57
2018-10-01T13:33:48.388Z,1.80
2018-10-01T13:36:17.062Z,1.73
2018-10-01T13:38:45.585Z,2.20
2018-10-01T13:41:14.183Z,2.00
2018-10-01T13:43:42.991Z,2.17
2018-10-01T13:46:11.571Z,2.13
2018-10-01T13:48:40.219Z,2.63
2018-10-01T13:51:08.779Z,2.20
2018-10-01T13:53:37.381Z,2.17
2018-10-01T13:56:06.856Z,2.23
2018-10-01T13:58:35.503Z,2.90
2018-10-01T14:01:04.149Z,2.63
2018-10-01T14:03:32.726Z,1.80
2018-10-01T14:06:01.483Z,1.93
2018-10-01T14:08:30.148Z,2.50
2018-10-01T14:10:58.731Z,2.27
2018-10-01T14:13:27.363Z,2.17
2018-10-01T14:15:55.937Z,2.17
2018-10-01T14:18:24.603Z,3.00
2018-10-01T14:20:53.221Z,1.50
2018-10-01T14:23:21.862Z,2.57
2018-10-01T14:25:50.577Z,1.83
2018-10-01T14:28:19.196Z,2.17
2018-10-01T14:30:47.866Z,1.43
2018-10-01T14:33:16.496Z,2.07
2018-10-01T14:35:45.172Z,1.60
2018-10-01T14:38:13.771Z,2.10
2018-10-01T14:40:42.419Z,1.60
2018-10-01T14:43:11.105Z,1.47
2018-10-01T14:45:40.101Z,1.10
2018-10-01T14:48:09.188Z,1.63
2018-10-01T14:50:37.768Z,1.83
2018-10-01T14:53:06.888Z,1.60
2018-10-01T14:55:35.484Z,2.37
2018-10-01T14:58:04.147Z,2.33
2018-10-01T15:00:32.924Z,2.47
2018-10-01T15:03:01.452Z,2.67
2018-10-01T15:05:30.032Z,3.20
2018-10-01T15:07:58.623Z,3.00
2018-10-01T15:10:27.342Z,2.40
2018-10-01T15:12:56.045Z,2.73
2018-10-01T15:15:24.617Z,1.70
2018-10-01T15:17:53.205Z,2.00
2018-10-01T15:20:21.887Z,2.47
2018-10-01T15:22:50.489Z,2.70
2018-10-01T15:25:19.068Z,2.20
2018-10-01T15:27:48.020Z,2.40
2018-10-01T15:30:16.720Z,1.97
2018-10-01T15:32:45.215Z,2.43
2018-10-01T15:35:13.862Z,2.27
2018-10-01T15:37:42.452Z,2.63
2018-10-01T15:40:11.048Z,1.37
2018-10-01T15:42:39.746Z,2.00
2018-10-01T15:45:08.335Z,1.90
2018-10-01T15:47:36.956Z,1.57
2018-10-01T15:50:05.585Z,1.83
2018-10-01T15:52:34.199Z,1.53
2018-10-01T15:55:02.764Z,1.70
2018-10-01T15:57:31.344Z,1.57
2018-10-01T16:00:00.016Z,1.40
2018-10-01T16:02:28.667Z,1.30
2018-10-01T16:04:57.249Z,1.80
2018-10-01T16:07:25.842Z,1.70
2018-10-01T16:09:54.548Z,1.70
2018-10-01T16:12:23.180Z,1.10
2018-10-01T16:14:52.302Z,1.60
2018-10-01T16:17:20.908Z,1.47
2018-10-01T16:19:49.680Z,2.23
2018-10-01T16:22:18.343Z,1.60
2018-10-01T16:24:46.932Z,2.00
2018-10-01T16:27:15.671Z,2.07
2018-10-01T16:29:44.271Z,2.70
2018-10-01T16:32:13.129Z,1.73
2018-10-01T16:34:41.769Z,1.37
2018-10-01T16:37:10.435Z,1.47
2018-10-01T16:39:39.020Z,1.43
2018-10-01T16:42:07.635Z,1.90
2018-10-01T16:44:36.229Z,1.43
2018-10-01T16:47:04.801Z,1.30
2018-10-01T16:49:33.406Z,1.23
2018-10-01T16:52:01.986Z,1.87
2018-10-01T16:54:30.556Z,1.60
2018-10-01T16:56:59.121Z,1.63
2018-10-01T16:59:27.752Z,1.90
2018-10-01T17:01:56.376Z,1.70
2018-10-01T17:04:24.976Z,1.37
2018-10-01T17:06:54.045Z,1.50
2018-10-01T17:09:22.628Z,1.07
2018-10-01T17:11:51.260Z,1.30
2018-10-01T17:14:19.853Z,1.47
2018-10-01T17:16:48.522Z,1.23
2018-10-01T17:19:17.133Z,1.60
2018-10-01T17:21:45.728Z,1.00
2018-10-01T17:24:14.308Z,1.13
2018-10-01T17:26:43.036Z,1.60
2018-10-01T17:29:11.616Z,1.93
2018-10-01T17:31:40.316Z,1.40
2018-10-01T17:34:08.961Z,1.57
2018-10-01T17:36:37.612Z,1.93
2018-10-01T17:39:08.936Z,1.47
2018-10-01T17:41:37.733Z,1.50
2018-10-01T17:44:06.552Z,1.60
2018-10-01T17:46:35.227Z,1.13
2018-10-01T17:49:03.853Z,1.80
2018-10-01T17:51:32.476Z,1.30
2018-10-01T17:54:01.283Z,1.50
2018-10-01T17:56:29.967Z,1.90
2018-10-01T17:58:58.730Z,1.00
2018-10-01T18:01:27.340Z,1.23
2018-10-01T18:03:55.977Z,1.20
2018-10-01T18:06:24.667Z,1.57
2018-10-01T18:08:53.228Z,1.10
2018-10-01T18:11:21.792Z,0.70
2018-10-01T18:13:51.080Z,0.93
2018-10-01T18:16:19.709Z,1.40
2018-10-01T18:18:48.285Z,1.23
2018-10-01T18:21:16.936Z,1.20
2018-10-01T18:23:45.573Z,1.10
2018-10-01T18:26:14.129Z,1.83
2018-10-01T18:28:42.811Z,1.60
2018-10-01T18:31:11.396Z,1.57
2018-10-01T18:33:39.971Z,1.52
2018-10-01T18:36:08.745Z,1.27
2018-10-01T18:38:37.546Z,1.47
2018-10-01T18:41:07.402Z,1.57
2018-10-01T18:43:36.083Z,1.47
2018-10-01T18:46:04.623Z,1.37
2018-10-01T18:48:33.272Z,1.40
2018-10-01T18:51:01.900Z,1.27
2018-10-01T18:53:30.493Z,1.53
2018-10-01T18:55:59.097Z,1.40
2018-10-01T18:58:28.048Z,1.07
2018-10-01T19:00:56.624Z,1.50
2018-10-01T19:03:25.364Z,0.80
2018-10-01T19:05:55.295Z,1.63
2018-10-01T19:08:24.948Z,1.50
2018-10-01T19:10:53.754Z,1.00
2018-10-01T19:13:22.748Z,1.33
2018-10-01T19:15:51.418Z,1.50
2018-10-01T19:18:20.346Z,1.30
2018-10-01T19:20:49.361Z,1.50
2018-10-01T19:23:18.065Z,1.57
2018-10-01T19:25:47.030Z,1.27
2018-10-01T19:28:16.437Z,1.13
2018-10-01T19:30:45.752Z,1.50
2018-10-01T19:33:14.434Z,1.47
2018-10-01T19:35:43.254Z,1.50
2018-10-01T19:38:11.811Z,1.57
2018-10-01T19:40:40.447Z,1.63
2018-10-01T19:43:09.073Z,1.80
2018-10-01T19:45:37.712Z,2.10
2018-10-01T19:48:06.757Z,2.00
2018-10-01T19:50:35.911Z,2.40
2018-10-01T19:53:04.549Z,1.70
2018-10-01T19:55:33.951Z,2.40
2018-10-01T19:58:02.638Z,1.60
2018-10-01T20:00:31.277Z,2.17
2018-10-01T20:02:59.896Z,1.77
2018-10-01T20:05:28.573Z,1.67
2018-10-01T20:07:57.437Z,1.70
2018-10-01T20:10:27.191Z,1.50
2018-10-01T20:12:57.334Z,1.87
2018-10-01T20:15:27.163Z,1.37
2018-10-01T20:17:56.964Z,1.37
2018-10-01T20:20:26.459Z,1.50
2018-10-01T20:22:55.140Z,1.73
2018-10-01T20:25:23.728Z,1.40
2018-10-01T20:27:52.506Z,1.43
2018-10-01T20:30:21.094Z,1.30
2018-10-01T20:32:49.595Z,1.33
2018-10-01T20:35:18.255Z,1.40
2018-10-01T20:37:46.883Z,1.77
2018-10-01T20:40:15.506Z,1.60
2018-10-01T20:42:44.186Z,1.13
2018-10-01T20:45:12.780Z,1.90
2018-10-01T20:47:41.391Z,1.40
2018-10-01T20:50:10.034Z,1.80
2018-10-01T20:52:38.756Z,0.97
2018-10-01T20:55:07.328Z,0.80
2018-10-01T20:57:35.983Z,1.30
2018-10-01T21:00:04.667Z,1.37
2018-10-01T21:02:33.329Z,1.43
2018-10-01T21:05:01.976Z,0.97
2018-10-01T21:07:30.565Z,1.27
2018-10-01T21:09:59.136Z,0.90
2018-10-01T21:12:27.710Z,1.70
2018-10-01T21:14:56.291Z,1.00
2018-10-01T21:17:24.891Z,0.80
2018-10-01T21:19:53.510Z,1.00
2018-10-01T21:22:22.223Z,0.90
2018-10-01T21:24:50.788Z,1.23
2018-10-01T21:27:19.377Z,1.30
2018-10-01T21:29:48.046Z,0.93
2018-10-01T21:32:16.664Z,1.20
2018-10-01T21:34:45.412Z,0.90
2018-10-01T21:37:13.999Z,1.20
2018-10-01T21:40:15.352Z,1.10
2018-10-01T21:42:44.233Z,1.13
2018-10-01T21:45:14.152Z,1.30
2018-10-01T21:47:42.767Z,1.40
2018-10-01T21:50:11.551Z,0.83
2018-10-01T21:52:40.156Z,1.13
2018-10-01T21:55:08.780Z,1.00
2018-10-01T21:57:37.389Z,1.43
2018-10-01T22:00:08.507Z,1.17
2018-10-01T22:02:37.268Z,1.20
2018-10-01T22:05:06.587Z,1.33
2018-10-01T22:07:35.996Z,1.00
2018-10-01T22:10:05.112Z,1.43
2018-10-01T22:12:33.722Z,1.57
2018-10-01T22:15:02.354Z,1.40
2018-10-01T22:17:31.399Z,1.27
2018-10-01T22:20:00.004Z,1.20
2018-10-01T22:22:28.586Z,1.10
2018-10-01T22:24:57.171Z,1.40
2018-10-01T22:27:25.833Z,1.20
2018-10-01T22:29:54.544Z,1.40
2018-10-01T22:32:23.138Z,1.27
2018-10-01T22:34:51.699Z,1.40
2018-10-01T22:37:20.267Z,1.33
2018-10-01T22:39:48.842Z,1.10
2018-10-01T22:42:17.429Z,1.17
2018-10-01T22:44:46.127Z,0.93
2018-10-01T22:47:14.700Z,1.60
2018-10-01T22:49:43.267Z,1.00
2018-10-01T22:52:11.884Z,1.40
2018-10-01T22:54:40.549Z,1.60
2018-10-01T22:57:09.170Z,1.50
2018-10-01T22:59:37.740Z,1.73
2018-10-01T23:02:06.316Z,1.17
2018-10-01T23:04:34.949Z,1.33
2018-10-01T23:07:03.537Z,1.60
2018-10-01T23:09:32.647Z,1.30
2018-10-01T23:12:01.294Z,1.30
2018-10-01T23:14:29.862Z,1.40
2018-10-01T23:16:58.431Z,1.20
2018-10-01T23:19:26.993Z,1.10
2018-10-01T23:21:55.554Z,1.30
2018-10-01T23:24:24.173Z,1.30
2018-10-01T23:26:52.755Z,1.50
2018-10-01T23:29:21.327Z,1.40
2018-10-01T23:31:49.909Z,1.37
2018-10-01T23:34:18.474Z,1.50
2018-10-01T23:36:47.118Z,1.03
2018-10-01T23:39:15.680Z,1.30
2018-10-01T23:41:44.268Z,1.77
2018-10-01T23:44:12.818Z,1.80
2018-10-01T23:46:41.419Z,1.67
2018-10-01T23:49:10.007Z,1.33
2018-10-01T23:51:38.600Z,1.20
2018-10-01T23:54:07.188Z,1.47
2018-10-01T23:56:35.776Z,1.63
2018-10-01T23:59:04.367Z,1.13
